Time;durP1;ratioP1;P1;durP2;ratioP2;P2;SDS_P1;SDS_P2;PMS_P1;PMS_P2;Temp;Humidity;BMP_temperature;BMP_pressure;BME280_temperature;BME280_humidity;BME280_pressure;Samples;Min_cycle;Max_cycle;Signal;HPM_P1;HPM_P2
2023/06/07 04:04:12;;;;;;;9.23;6.75;;;;;;;18.45;100.00;100511.37;5618002;31;76794;-56
2023/06/07 04:07:16;;;;;;;10.07;6.78;;;;;;;18.45;100.00;100511.37;5603465;31;33382;-56
2023/06/07 04:10:19;;;;;;;8.90;5.85;;;;;;;17.98;100.00;100516.88;5602769;31;34662;-55
2023/06/07 04:13:21;;;;;;;10.48;6.15;;;;;;;17.98;100.00;100514.16;5602381;31;34229;-55
2023/06/07 04:16:24;;;;;;;8.32;6.40;;;;;;;17.93;100.00;100523.28;5603144;31;33571;-56
2023/06/07 04:19:27;;;;;;;8.02;6.00;;;;;;;17.92;100.00;100523.62;5601966;31;34367;-56
2023/06/07 04:22:30;;;;;;;12.68;6.00;;;;;;;17.99;100.00;100523.91;5602647;31;33892;-55
2023/06/07 04:25:33;;;;;;;12.20;5.68;;;;;;;18.02;100.00;100520.53;5602544;31;33252;-54
2023/06/07 04:28:40;;;;;;;9.35;5.57;;;;;;;18.15;100.00;100524.94;5602518;31;34723;-54
2023/06/07 04:31:44;;;;;;;8.68;5.50;;;;;;;18.17;100.00;100536.25;5602620;31;34370;-55
2023/06/07 04:34:47;;;;;;;8.70;5.35;;;;;;;18.19;100.00;100525.09;5602392;31;33483;-54
2023/06/07 04:37:51;;;;;;;6.78;5.12;;;;;;;18.16;100.00;100525.75;5589317;31;33813;-54
2023/06/07 04:40:53;;;;;;;9.98;5.80;;;;;;;18.13;100.00;100527.19;5602482;31;33226;-55
2023/06/07 04:43:57;;;;;;;9.73;5.22;;;;;;;18.18;100.00;100523.47;5602232;31;34451;-55
2023/06/07 04:47:00;;;;;;;10.35;5.43;;;;;;;18.22;100.00;100525.22;5597300;31;33192;-55
2023/06/07 04:50:10;;;;;;;8.85;5.75;;;;;;;18.12;100.00;100524.81;5582037;32;33228;-55
2023/06/07 04:53:17;;;;;;;9.95;5.53;;;;;;;18.27;100.00;100527.72;5582993;31;34262;-55
2023/06/07 04:56:21;;;;;;;9.48;5.60;;;;;;;18.15;100.00;100530.38;5581808;32;33388;-55
2023/06/07 04:59:24;;;;;;;7.03;5.25;;;;;;;18.22;100.00;100530.66;5580706;31;32922;-55
2023/06/07 05:02:27;;;;;;;7.50;5.93;;;;;;;18.17;100.00;100532.75;5582006;31;34107;-55
2023/06/07 05:05:29;;;;;;;8.55;5.70;;;;;;;18.27;100.00;100537.81;5581627;31;33018;-55
2023/06/07 05:08:32;;;;;;;8.20;5.65;;;;;;;18.23;100.00;100531.44;5580539;32;33405;-54
2023/06/07 05:11:35;;;;;;;7.72;5.85;;;;;;;18.24;100.00;100541.16;5576792;32;33425;-55
2023/06/07 05:14:38;;;;;;;8.40;5.50;;;;;;;18.21;100.00;100534.50;5572017;31;33216;-54
2023/06/07 05:17:40;;;;;;;8.27;5.40;;;;;;;18.33;100.00;100531.06;5563126;32;34340;-56
2023/06/07 05:20:43;;;;;;;7.72;5.35;;;;;;;18.31;100.00;100530.62;5560748;32;34366;-55
2023/06/07 05:23:48;;;;;;;9.77;5.53;;;;;;;18.36;99.18;100533.13;5550094;32;34372;-56
2023/06/07 05:26:51;;;;;;;7.20;5.55;;;;;;;18.42;100.00;100533.72;5561469;32;33200;-55
2023/06/07 05:29:53;;;;;;;7.78;5.57;;;;;;;18.42;100.00;100531.81;5568971;32;33547;-55
2023/06/07 05:32:57;;;;;;;7.28;5.05;;;;;;;18.46;100.00;100532.72;5569597;31;33590;-56
2023/06/07 05:36:00;;;;;;;8.77;5.22;;;;;;;18.44;100.00;100531.47;5568421;31;32999;-56
2023/06/07 05:39:03;;;;;;;7.18;4.82;;;;;;;18.48;100.00;100529.72;5569676;31;33448;-56
2023/06/07 05:42:06;;;;;;;6.80;4.90;;;;;;;18.37;100.00;100533.91;5567399;32;31934;-56
2023/06/07 05:45:09;;;;;;;9.95;5.47;;;;;;;18.44;100.00;100536.91;5568308;32;34058;-56
2023/06/07 05:48:11;;;;;;;6.20;4.93;;;;;;;18.49;100.00;100540.22;5568626;31;32220;-56
2023/06/07 05:51:14;;;;;;;9.65;5.72;;;;;;;18.51;100.00;100542.63;5568221;32;33692;-56
2023/06/07 05:54:17;;;;;;;8.45;5.32;;;;;;;18.55;100.00;100540.84;5549081;32;34219;-56
2023/06/07 05:57:21;;;;;;;10.25;5.60;;;;;;;18.53;100.00;100540.34;5554635;32;33681;-56
2023/06/07 06:00:23;;;;;;;9.90;5.37;;;;;;;18.58;100.00;100545.59;5568312;32;33697;-56
2023/06/07 06:03:26;;;;;;;11.82;5.87;;;;;;;18.58;98.80;100544.81;5554515;32;33965;-55
2023/06/07 06:06:29;;;;;;;7.45;5.78;;;;;;;18.64;100.00;100548.91;5565053;32;33966;-55
2023/06/07 06:09:31;;;;;;;8.80;6.62;;;;;;;18.67;100.00;100546.31;5559549;32;33649;-55
2023/06/07 06:12:33;;;;;;;12.37;6.03;;;;;;;18.73;100.00;100549.69;5567886;32;34295;-55
2023/06/07 06:15:36;;;;;;;11.45;6.80;;;;;;;18.80;100.00;100547.22;5568788;32;33696;-56
2023/06/07 06:18:40;;;;;;;9.73;6.37;;;;;;;18.74;100.00;100546.66;5567338;32;33332;-55
2023/06/07 06:21:43;;;;;;;10.23;6.87;;;;;;;18.74;100.00;100548.53;5568115;32;33544;-55
2023/06/07 06:24:45;;;;;;;10.75;6.25;;;;;;;18.75;100.00;100558.28;5565752;32;33707;-56
2023/06/07 06:27:48;;;;;;;10.77;6.87;;;;;;;18.79;100.00;100556.50;5566653;32;34444;-57
2023/06/07 06:30:50;;;;;;;11.48;7.40;;;;;;;18.78;100.00;100550.28;5567968;32;33698;-56
2023/06/07 06:33:53;;;;;;;8.57;5.57;;;;;;;18.78;100.00;100549.50;5564480;32;34354;-55
2023/06/07 06:36:57;;;;;;;10.73;6.53;;;;;;;18.81;100.00;100554.25;5568268;32;34217;-55
2023/06/07 06:39:59;;;;;;;9.77;6.95;;;;;;;18.81;100.00;100556.16;5567837;32;33508;-56
2023/06/07 06:43:01;;;;;;;9.75;6.45;;;;;;;18.89;100.00;100558.03;5553458;32;34153;-56
2023/06/07 06:46:05;;;;;;;10.18;6.28;;;;;;;18.96;100.00;100558.28;5548283;31;33332;-55
2023/06/07 06:49:07;;;;;;;8.85;6.00;;;;;;;19.01;100.00;100558.87;5561970;32;34332;-56
2023/06/07 06:52:15;;;;;;;8.65;7.10;;;;;;;19.02;99.87;100556.97;5566372;32;34301;-55
2023/06/07 06:55:17;;;;;;;8.60;6.47;;;;;;;19.10;95.03;100561.50;5564601;31;33658;-55
2023/06/07 06:58:20;;;;;;;10.23;7.03;;;;;;;19.10;99.14;100558.00;5564216;32;33634;-57
2023/06/07 07:01:22;;;;;;;11.55;6.90;;;;;;;19.11;99.10;100556.91;5566370;32;33562;-55
2023/06/07 07:04:25;;;;;;;12.25;6.55;;;;;;;19.19;98.63;100558.72;5566657;32;33657;-56
2023/06/07 07:07:27;;;;;;;10.73;6.82;;;;;;;19.23;97.17;100556.94;5566249;32;33561;-55
2023/06/07 07:10:32;;;;;;;8.88;6.30;;;;;;;19.18;93.16;100555.22;5567373;32;33535;-56
2023/06/07 07:13:34;;;;;;;13.93;7.30;;;;;;;19.20;94.84;100561.12;5567368;32;34090;-55
2023/06/07 07:16:38;;;;;;;9.57;6.35;;;;;;;19.22;90.19;100556.13;5567662;32;33746;-56
2023/06/07 07:19:42;;;;;;;10.50;6.50;;;;;;;19.28;94.58;100569.53;5567209;32;33588;-56
2023/06/07 07:22:46;;;;;;;10.82;6.70;;;;;;;19.37;95.57;100571.03;5565311;32;33635;-57
2023/06/07 07:25:48;;;;;;;10.30;7.60;;;;;;;19.37;92.83;100564.78;5565123;32;34314;-56
2023/06/07 07:28:52;;;;;;;10.48;6.80;;;;;;;19.54;90.83;100578.22;5560310;32;33562;-57
2023/06/07 07:31:55;;;;;;;10.50;6.50;;;;;;;19.42;85.38;100565.38;5567906;32;33895;-56
2023/06/07 07:34:58;;;;;;;13.98;6.60;;;;;;;19.45;91.61;100577.53;5567697;32;33164;-56
2023/06/07 07:38:02;;;;;;;12.32;6.43;;;;;;;19.46;93.00;100569.00;5567768;32;33661;-56
2023/06/07 07:41:05;;;;;;;9.43;6.65;;;;;;;19.50;86.36;100577.28;5567515;32;34240;-55
2023/06/07 07:44:07;;;;;;;7.90;5.90;;;;;;;19.51;85.66;100578.91;5567611;32;34701;-56
2023/06/07 07:47:11;;;;;;;10.95;6.93;;;;;;;19.58;92.59;100579.16;5567496;32;33985;-56
2023/06/07 07:50:15;;;;;;;8.93;6.25;;;;;;;19.61;90.34;100574.97;5567169;32;33584;-56
2023/06/07 07:53:18;;;;;;;10.30;6.12;;;;;;;19.65;88.43;100576.69;5563340;32;34198;-56
2023/06/07 07:56:23;;;;;;;9.10;6.30;;;;;;;19.60;88.40;100574.19;5562720;32;33588;-56
2023/06/07 07:59:27;;;;;;;11.35;6.93;;;;;;;19.65;90.83;100584.06;5566362;32;34351;-55
2023/06/07 08:02:29;;;;;;;7.97;5.35;;;;;;;19.71;90.20;100586.22;5565026;32;33135;-56
2023/06/07 08:05:32;;;;;;;10.32;6.72;;;;;;;19.75;92.20;100593.72;5566420;32;33271;-55
2023/06/07 08:08:34;;;;;;;9.82;6.40;;;;;;;19.86;86.80;100586.72;5567043;32;34252;-55
2023/06/07 08:11:37;;;;;;;9.45;6.57;;;;;;;19.88;87.99;100587.16;5566992;32;33716;-56
2023/06/07 08:14:40;;;;;;;8.32;6.37;;;;;;;19.88;83.80;100590.69;5566911;32;34428;-56
2023/06/07 08:17:42;;;;;;;7.95;6.07;;;;;;;19.86;88.88;100590.22;5566949;32;33411;-55
2023/06/07 08:20:44;;;;;;;10.48;6.55;;;;;;;19.89;91.56;100586.03;5566905;32;33615;-55
2023/06/07 08:23:47;;;;;;;10.38;6.03;;;;;;;20.02;85.97;100589.56;5566635;32;34246;-55
2023/06/07 08:26:49;;;;;;;7.55;6.15;;;;;;;19.99;86.60;100585.59;5566897;32;33599;-56
2023/06/07 08:29:52;;;;;;;11.98;6.62;;;;;;;20.02;87.62;100590.34;5567144;32;33874;-56
2023/06/07 08:32:55;;;;;;;7.22;6.20;;;;;;;20.08;88.98;100583.56;5564824;32;33584;-56
2023/06/07 08:35:57;;;;;;;10.35;6.60;;;;;;;20.17;89.10;100586.97;5566742;32;33210;-56
2023/06/07 08:39:01;;;;;;;10.68;6.87;;;;;;;20.16;88.70;100584.59;5562807;32;33695;-56
2023/06/07 08:42:04;;;;;;;8.73;6.80;;;;;;;20.19;86.39;100581.19;5566233;32;33547;-56
2023/06/07 08:45:07;;;;;;;16.05;7.40;;;;;;;20.30;85.47;100579.63;5566311;32;34422;-56
2023/06/07 08:48:12;;;;;;;10.88;6.97;;;;;;;20.30;88.29;100582.34;5556064;32;33776;-56
2023/06/07 08:51:16;;;;;;;11.30;6.40;;;;;;;20.29;83.38;100582.66;5568369;32;33726;-56
2023/06/07 08:54:26;;;;;;;13.27;7.20;;;;;;;20.35;84.94;100578.56;5568807;32;34401;-55
2023/06/07 08:57:30;;;;;;;9.70;6.18;;;;;;;20.48;83.93;100565.75;5549520;32;33394;-55
2023/06/07 09:00:35;;;;;;;11.40;6.73;;;;;;;20.59;81.83;100564.16;5568658;32;32253;-57
2023/06/07 09:03:37;;;;;;;9.20;6.62;;;;;;;20.58;86.21;100563.38;5567168;32;33317;-57
2023/06/07 09:06:40;;;;;;;9.43;6.93;;;;;;;20.61;84.07;100562.69;5567227;32;33553;-57
2023/06/07 09:09:45;;;;;;;11.95;6.53;;;;;;;20.74;79.98;100563.47;5568463;32;33713;-56
2023/06/07 09:12:48;;;;;;;;;;;;;;;20.69;84.00;100560.19;5569014;32;34387;-55
2023/06/07 09:15:52;;;;;;;15.07;7.65;;;;;;;20.79;86.70;100563.22;5568729;32;33914;-56
2023/06/07 09:18:55;;;;;;;15.60;7.10;;;;;;;20.79;86.00;100568.66;5568505;32;33696;-56
2023/06/07 09:21:57;;;;;;;10.52;7.12;;;;;;;20.81;83.28;100563.66;5568863;32;33376;-55
2023/06/07 09:25:07;;;;;;;11.88;6.90;;;;;;;20.73;84.73;100567.34;5568339;32;33421;-56
2023/06/07 09:28:11;;;;;;;10.38;7.20;;;;;;;20.72;89.43;100565.72;5568829;32;33642;-55
2023/06/07 09:31:32;;;;;;;11.32;7.70;;;;;;;20.79;83.69;100565.16;5566723;32;33666;-56
2023/06/07 09:34:34;;;;;;;11.18;7.55;;;;;;;20.79;85.99;100573.31;5551968;32;33842;-56
2023/06/07 09:37:45;;;;;;;13.23;6.65;;;;;;;20.78;86.03;100572.53;5569642;32;33609;-55
2023/06/07 09:40:51;;;;;;;9.70;7.35;;;;;;;20.91;85.42;100573.28;5568930;32;33629;-56
2023/06/07 09:43:54;;;;;;;13.32;7.75;;;;;;;20.93;83.93;100584.66;5568286;32;34325;-56
2023/06/07 09:46:58;;;;;;;9.18;7.53;;;;;;;20.90;81.15;100581.84;5568639;31;33779;-55
2023/06/07 09:50:07;;;;;;;10.20;7.37;;;;;;;20.89;86.53;100572.84;5568682;32;34260;-56
2023/06/07 09:53:09;;;;;;;9.07;7.12;;;;;;;20.84;83.64;100581.25;5568451;32;33700;-56
2023/06/07 09:56:16;;;;;;;15.05;8.13;;;;;;;20.86;81.70;100576.25;5568893;32;33616;-56
2023/06/07 09:59:18;;;;;;;8.15;7.07;;;;;;;20.82;87.25;100573.41;5568915;32;33223;-55
2023/06/07 10:02:26;;;;;;;9.35;6.93;;;;;;;20.81;81.66;100571.84;5568965;32;33771;-55
2023/06/07 10:05:29;;;;;;;11.00;6.95;;;;;;;20.79;84.23;100571.38;5563935;32;33622;-55
2023/06/07 10:08:31;;;;;;;11.38;7.15;;;;;;;20.74;84.57;100571.63;5564757;32;32234;-56
2023/06/07 10:11:36;;;;;;;14.05;8.05;;;;;;;20.81;86.25;100565.59;5568600;32;33180;-55
2023/06/07 10:14:40;;;;;;;12.18;7.95;;;;;;;20.82;84.68;100556.28;5565445;32;34476;-56
2023/06/07 10:17:55;;;;;;;11.82;7.70;;;;;;;20.97;81.99;100563.75;5569251;32;34309;-58
2023/06/07 10:21:02;;;;;;;9.50;8.50;;;;;;;21.01;81.95;100563.84;5564229;32;33626;-58
2023/06/07 10:24:09;;;;;;;10.27;9.15;;;;;;;21.05;81.18;100551.91;5565663;32;34716;-58
2023/06/07 10:27:17;;;;;;;9.35;8.05;;;;;;;21.10;83.64;100554.38;5560906;32;33281;-58
2023/06/07 10:30:24;;;;;;;14.98;9.05;;;;;;;21.30;81.41;100554.53;5566819;32;34444;-58
2023/06/07 10:33:27;;;;;;;11.07;9.70;;;;;;;21.35;79.86;100555.09;5566475;32;33703;-58
2023/06/07 10:36:29;;;;;;;11.05;9.85;;;;;;;21.38;82.02;100556.31;5564526;32;33498;-58
2023/06/07 10:39:32;;;;;;;11.85;9.80;;;;;;;21.43;79.30;100556.09;5556789;32;34301;-58
2023/06/07 10:42:35;;;;;;;9.13;7.37;;;;;;;21.46;81.35;100555.37;5552795;32;33389;-58
2023/06/07 10:45:37;;;;;;;13.15;8.82;;;;;;;21.43;85.84;100556.09;5557646;32;33723;-58
2023/06/07 10:48:43;;;;;;;12.98;9.25;;;;;;;21.55;79.07;100555.22;5559904;31;33617;-57
2023/06/07 10:51:53;;;;;;;13.55;9.35;;;;;;;21.50;79.91;100542.63;5564902;32;33704;-57
2023/06/07 10:54:56;;;;;;;14.75;10.30;;;;;;;21.60;77.26;100546.78;5562713;32;33632;-58
2023/06/07 10:58:00;;;;;;;10.27;9.05;;;;;;;21.56;79.67;100548.63;5559879;32;33479;-58
2023/06/07 11:01:23;;;;;;;10.27;8.75;;;;;;;21.57;78.55;100544.75;5560027;32;34308;-58
2023/06/07 11:04:37;;;;;;;11.95;9.27;;;;;;;21.58;79.70;100549.84;5561976;32;33579;-58
2023/06/07 11:07:47;;;;;;;10.02;9.05;;;;;;;21.68;77.13;100545.03;5560997;32;34443;-58
2023/06/07 11:10:50;;;;;;;11.23;8.88;;;;;;;21.66;79.61;100548.13;5559225;32;33589;-58
2023/06/07 11:13:52;;;;;;;14.48;9.02;;;;;;;21.68;80.77;100540.34;5561071;32;33872;-58
2023/06/07 11:16:55;;;;;;;10.38;8.70;;;;;;;21.73;78.84;100542.84;5558453;32;33638;-58
2023/06/07 11:19:59;;;;;;;10.95;8.95;;;;;;;21.77;79.64;100543.72;5557037;32;33672;-58
2023/06/07 11:23:24;;;;;;;11.12;9.68;;;;;;;21.79;74.20;100551.56;5563696;32;33281;-58
2023/06/07 11:26:27;;;;;;;12.98;10.00;;;;;;;21.78;75.25;100547.22;5559487;32;34350;-58
2023/06/07 11:29:30;;;;;;;15.93;9.70;;;;;;;21.86;73.81;100546.28;5564557;32;33183;-58
2023/06/07 11:32:38;;;;;;;14.25;8.90;;;;;;;21.95;73.48;100546.88;5553625;32;33650;-58
2023/06/07 11:35:42;;;;;;;11.43;8.95;;;;;;;22.00;72.90;100545.81;5555407;32;33591;-58
2023/06/07 11:38:49;;;;;;;13.48;10.18;;;;;;;21.98;74.03;100550.81;5551349;32;33117;-58
2023/06/07 11:41:51;;;;;;;11.48;9.88;;;;;;;21.94;74.64;100555.41;5556462;32;33848;-58
2023/06/07 11:44:54;;;;;;;11.98;10.30;;;;;;;22.03;71.35;100545.13;5553255;32;32313;-58
2023/06/07 11:48:00;;;;;;;12.52;10.07;;;;;;;21.91;73.38;100546.00;5555271;32;34157;-58
2023/06/07 11:51:03;;;;;;;11.12;9.93;;;;;;;21.87;74.13;100538.87;5559207;32;33773;-58
2023/06/07 11:54:05;;;;;;;16.12;10.02;;;;;;;21.85;77.03;100535.69;5560964;32;33731;-58
2023/06/07 11:57:09;;;;;;;11.32;10.05;;;;;;;21.90;74.27;100536.22;5561325;32;33685;-58
2023/06/07 12:00:17;;;;;;;10.98;9.85;;;;;;;21.92;77.48;100531.22;5562838;32;34390;-58
2023/06/07 12:03:21;;;;;;;12.65;10.80;;;;;;;21.99;77.53;100541.50;5565377;32;33850;-58
2023/06/07 12:06:26;;;;;;;11.90;10.70;;;;;;;22.07;74.12;100523.34;5565270;32;34669;-58
2023/06/07 12:09:28;;;;;;;9.57;8.68;;;;;;;22.18;76.05;100522.47;5566224;32;34441;-58
2023/06/07 12:12:31;;;;;;;12.50;9.85;;;;;;;22.31;78.94;100522.38;5562871;32;33348;-58
2023/06/07 12:15:34;;;;;;;12.43;9.68;;;;;;;22.44;73.74;100515.63;5562562;32;33145;-58
2023/06/07 12:18:38;;;;;;;14.07;11.15;;;;;;;22.48;74.14;100505.56;5558583;32;33692;-58
2023/06/07 12:21:40;;;;;;;13.85;10.45;;;;;;;22.50;72.59;100498.63;5561323;32;33646;-58
2023/06/07 12:24:42;;;;;;;12.65;10.23;;;;;;;22.50;73.30;100497.81;5561363;32;33610;-58
2023/06/07 12:27:48;;;;;;;11.68;10.50;;;;;;;22.49;73.85;100491.56;5561867;32;33588;-58
2023/06/07 12:30:51;;;;;;;12.27;10.90;;;;;;;22.49;70.46;100488.06;5559906;32;34019;-58
2023/06/07 12:34:02;;;;;;;12.43;10.73;;;;;;;22.54;69.87;100471.37;5568116;32;34389;-59
2023/06/07 12:37:05;;;;;;;12.40;10.98;;;;;;;22.47;70.40;100474.75;5568218;32;34300;-58
2023/06/07 12:40:08;;;;;;;14.15;10.27;;;;;;;22.57;71.73;100469.88;5567586;32;34391;-57
2023/06/07 12:43:10;;;;;;;12.82;10.57;;;;;;;22.61;69.94;100468.00;5568194;32;33464;-58
2023/06/07 12:46:13;;;;;;;12.63;9.60;;;;;;;22.63;71.46;100462.97;5565322;31;33230;-58
2023/06/07 12:49:15;;;;;;;13.52;9.23;;;;;;;22.71;70.36;100465.50;5567100;32;34385;-58
2023/06/07 12:52:18;;;;;;;14.32;10.40;;;;;;;22.88;71.74;100469.72;5567015;32;34028;-58
2023/06/07 12:55:20;;;;;;;10.27;9.18;;;;;;;22.79;67.36;100468.38;5568818;32;34506;-58
2023/06/07 12:58:22;;;;;;;11.38;10.13;;;;;;;22.73;70.13;100462.38;5560484;32;33674;-58
2023/06/07 13:01:25;;;;;;;11.73;10.52;;;;;;;22.81;70.69;100466.03;5565587;32;33711;-58
2023/06/07 13:04:27;;;;;;;11.73;9.80;;;;;;;22.75;67.92;100460.87;5561159;32;33821;-58
2023/06/07 13:07:33;;;;;;;11.63;10.53;;;;;;;22.84;68.07;100466.09;5558750;32;33161;-58
2023/06/07 13:10:36;;;;;;;11.27;10.25;;;;;;;22.89;67.95;100473.25;5562704;32;33616;-58
2023/06/07 13:13:39;;;;;;;15.13;10.63;;;;;;;22.88;69.16;100466.19;5565984;32;34406;-58
2023/06/07 13:16:43;;;;;;;13.30;10.18;;;;;;;22.82;73.02;100465.69;5557321;32;34351;-58
2023/06/07 13:19:46;;;;;;;11.63;9.50;;;;;;;22.89;71.79;100456.84;5565056;32;34852;-58
2023/06/07 13:22:48;;;;;;;11.07;9.90;;;;;;;22.99;69.98;100450.81;5554415;32;33825;-58
2023/06/07 13:25:51;;;;;;;11.27;10.05;;;;;;;22.95;69.18;100453.50;5554699;32;34434;-58
2023/06/07 13:28:53;;;;;;;14.38;10.05;;;;;;;22.93;67.63;100455.00;5566054;32;33755;-58
2023/06/07 13:31:56;;;;;;;12.65;9.40;;;;;;;22.93;68.55;100441.31;5568820;32;33599;-58
2023/06/07 13:34:58;;;;;;;13.65;9.73;;;;;;;23.02;69.13;100446.56;5567190;32;33738;-58
2023/06/07 13:38:00;;;;;;;16.87;9.85;;;;;;;23.05;69.50;100443.91;5567951;32;34710;-58
2023/06/07 13:41:03;;;;;;;26.20;10.38;;;;;;;23.08;65.40;100436.91;5565841;32;33688;-58
2023/06/07 13:44:07;;;;;;;14.00;10.35;;;;;;;23.18;66.47;100439.84;5564334;32;33369;-58
2023/06/07 13:47:20;;;;;;;13.95;9.93;;;;;;;23.20;68.51;100436.72;5565717;31;33586;-58
2023/06/07 13:50:23;;;;;;;10.50;9.18;;;;;;;23.11;65.63;100426.06;5563238;32;34342;-58
2023/06/07 13:53:25;;;;;;;14.52;9.73;;;;;;;23.11;67.01;100430.69;5568174;32;33616;-58
2023/06/07 13:56:29;;;;;;;11.02;9.40;;;;;;;23.08;68.87;100429.50;5567165;32;33674;-58
2023/06/07 13:59:32;;;;;;;17.10;10.02;;;;;;;23.10;67.12;100431.88;5567252;32;34359;-58
2023/06/07 14:02:34;;;;;;;12.60;10.18;;;;;;;23.05;70.05;100435.69;5565093;32;33688;-58
2023/06/07 14:05:37;;;;;;;19.77;10.10;;;;;;;23.02;69.12;100430.97;5566682;32;34311;-61
2023/06/07 14:08:39;;;;;;;15.63;9.65;;;;;;;22.98;71.54;100424.63;5568537;32;34338;-58
2023/06/07 14:11:42;;;;;;;14.90;9.13;;;;;;;22.94;70.51;100424.56;5566750;32;33830;-58
2023/06/07 14:14:45;;;;;;;21.33;9.93;;;;;;;22.95;70.16;100426.16;5566955;32;34139;-58
2023/06/07 14:17:47;;;;;;;13.55;8.93;;;;;;;22.96;69.51;100421.47;5567342;32;32153;-58
2023/06/07 14:20:49;;;;;;;19.77;9.13;;;;;;;22.95;69.76;100417.16;5567819;32;34242;-58
2023/06/07 14:23:52;;;;;;;11.70;8.30;;;;;;;22.91;70.81;100414.34;5568362;32;33770;-58
2023/06/07 14:26:54;;;;;;;11.43;8.43;;;;;;;22.89;67.76;100404.91;5569062;32;33694;-58
2023/06/07 14:29:57;;;;;;;14.32;8.80;;;;;;;22.90;70.20;100410.00;5566619;32;34414;-58
2023/06/07 14:32:59;;;;;;;10.68;9.45;;;;;;;22.88;70.32;100406.03;5568138;32;34647;-58
2023/06/07 14:36:02;;;;;;;13.82;10.23;;;;;;;22.82;69.55;100408.31;5568746;32;33648;-58
2023/06/07 14:39:04;;;;;;;13.93;9.98;;;;;;;22.77;71.74;100413.25;5568088;32;34157;-58
2023/06/07 14:42:07;;;;;;;11.32;8.88;;;;;;;22.74;73.50;100401.09;5567711;32;33594;-58
2023/06/07 14:45:09;;;;;;;18.83;10.70;;;;;;;22.69;71.19;100404.16;5568025;32;33764;-58
2023/06/07 14:48:12;;;;;;;14.18;11.40;;;;;;;22.70;75.13;100406.50;5565110;32;34352;-58
2023/06/07 14:51:15;;;;;;;11.32;9.93;;;;;;;22.60;86.37;100406.31;5567053;32;33777;-58
2023/06/07 14:54:17;;;;;;;12.73;11.43;;;;;;;22.42;86.87;100400.50;5568303;32;33627;-58
2023/06/07 14:57:20;;;;;;;13.65;12.15;;;;;;;22.32;88.12;100407.34;5567988;32;33256;-58
2023/06/07 15:00:22;;;;;;;14.77;11.95;;;;;;;22.18;92.07;100407.78;5567931;32;33626;-58
2023/06/07 15:03:24;;;;;;;14.10;10.73;;;;;;;22.13;93.07;100407.28;5566974;32;33364;-58
2023/06/07 15:06:27;;;;;;;17.52;11.20;;;;;;;22.02;93.11;100396.94;5566567;32;33594;-58
2023/06/07 15:09:32;;;;;;;14.38;10.07;;;;;;;21.98;96.50;100393.31;5565439;32;34374;-58
2023/06/07 15:12:36;;;;;;;;;;;;;;;21.97;96.75;100385.50;5564982;32;33736;-58
2023/06/07 15:15:38;;;;;;;11.65;10.52;;;;;;;21.91;89.37;100379.50;5566313;32;33855;-58
2023/06/07 15:18:41;;;;;;;13.38;10.77;;;;;;;21.98;86.83;100379.66;5566587;32;33701;-58
2023/06/07 15:21:43;;;;;;;11.75;10.55;;;;;;;21.93;87.81;100379.16;5568548;32;34529;-58
2023/06/07 15:24:46;;;;;;;17.65;10.63;;;;;;;21.96;88.96;100379.25;5567482;32;33621;-58
2023/06/07 15:27:48;;;;;;;13.07;10.60;;;;;;;21.97;88.16;100378.09;5567314;32;33918;-58
2023/06/07 15:30:50;;;;;;;14.07;10.35;;;;;;;22.00;85.44;100387.50;5568651;32;34035;-58
2023/06/07 15:33:54;;;;;;;11.32;10.13;;;;;;;22.07;81.50;100384.91;5568718;32;33244;-58
2023/06/07 15:36:57;;;;;;;15.93;9.50;;;;;;;22.07;80.60;100386.88;5568759;32;34317;-58
2023/06/07 15:39:59;;;;;;;11.68;10.48;;;;;;;22.09;77.91;100384.59;5568976;32;33751;-58
2023/06/07 15:43:02;;;;;;;11.98;10.23;;;;;;;22.09;85.42;100390.03;5568982;32;34472;-58
2023/06/07 15:46:04;;;;;;;11.10;9.98;;;;;;;22.13;84.84;100390.91;5568800;32;33715;-58
2023/06/07 15:49:07;;;;;;;11.77;10.40;;;;;;;22.29;85.23;100410.78;5568722;31;33821;-58
2023/06/07 15:52:09;;;;;;;14.55;10.80;;;;;;;22.29;82.58;100402.59;5568830;32;34339;-58
2023/06/07 15:55:11;;;;;;;10.70;9.60;;;;;;;22.36;84.50;100405.47;5568720;32;34325;-58
2023/06/07 15:58:17;;;;;;;;;;;;;;;22.33;82.24;100408.91;5568290;32;34535;-58
2023/06/07 16:01:19;;;;;;;13.07;9.88;;;;;;;22.34;83.83;100412.41;5568441;32;33954;-58
2023/06/07 16:04:22;;;;;;;11.48;10.32;;;;;;;22.36;83.66;100405.47;5568591;32;34458;-58
2023/06/07 16:07:25;;;;;;;12.68;9.38;;;;;;;22.34;83.61;100407.75;5568523;32;33365;-58
2023/06/07 16:10:28;;;;;;;13.57;9.98;;;;;;;22.39;84.44;100406.69;5568367;32;34092;-58
2023/06/07 16:13:30;;;;;;;12.10;10.38;;;;;;;22.40;80.50;100397.34;5568458;32;34405;-58
2023/06/07 16:16:33;;;;;;;11.48;9.90;;;;;;;22.41;81.94;100398.91;5568519;32;33730;-58
2023/06/07 16:19:36;;;;;;;10.10;8.60;;;;;;;22.37;84.30;100396.09;5568312;32;33625;-58
2023/06/07 16:22:39;;;;;;;10.07;8.65;;;;;;;22.42;81.65;100395.03;5568215;32;33519;-58
2023/06/07 16:25:41;;;;;;;9.13;7.65;;;;;;;22.41;78.90;100385.25;5568007;32;33711;-58
